createdAt,value
2019-03-11T00:00:57.415Z,51.60
2019-03-11T00:03:02.164Z,51.60
2019-03-11T00:05:08.541Z,51.50
2019-03-11T00:07:13.273Z,51.60
2019-03-11T00:09:18.030Z,51.60
2019-03-11T00:11:22.897Z,51.50
2019-03-11T00:13:28.083Z,51.60
2019-03-11T00:15:32.777Z,51.50
2019-03-11T00:17:37.507Z,51.50
2019-03-11T00:19:42.814Z,51.40
2019-03-11T00:21:47.718Z,51.50
2019-03-11T00:23:52.603Z,51.40
2019-03-11T00:25:57.440Z,51.50
2019-03-11T00:28:02.365Z,51.40
2019-03-11T00:30:07.625Z,52.00
2019-03-11T00:32:12.530Z,51.30
2019-03-11T00:34:17.274Z,51.40
2019-03-11T00:36:22.388Z,51.30
2019-03-11T00:38:27.169Z,51.30
2019-03-11T00:40:31.948Z,51.30
2019-03-11T00:42:36.710Z,51.30
2019-03-11T00:44:41.488Z,51.30
2019-03-11T00:46:46.518Z,51.30
2019-03-11T00:48:51.658Z,51.20
2019-03-11T00:50:56.426Z,51.20
2019-03-11T00:53:01.511Z,51.20
2019-03-11T00:55:06.599Z,51.30
2019-03-11T00:57:11.561Z,51.80
2019-03-11T00:59:16.360Z,51.20
2019-03-11T01:01:21.334Z,51.20
2019-03-11T01:03:26.143Z,51.10
2019-03-11T01:05:30.998Z,51.10
2019-03-11T01:07:35.777Z,51.20
2019-03-11T01:09:40.733Z,51.20
2019-03-11T01:11:45.500Z,51.10
2019-03-11T01:13:50.490Z,51.10
2019-03-11T01:15:55.397Z,51.10
2019-03-11T01:18:00.279Z,51.00
2019-03-11T01:20:07.889Z,51.00
2019-03-11T01:22:12.770Z,51.10
2019-03-11T01:24:17.777Z,51.00
2019-03-11T01:26:22.616Z,51.00
2019-03-11T01:28:28.471Z,51.00
2019-03-11T01:30:33.311Z,51.00
2019-03-11T01:32:39.137Z,51.00
2019-03-11T01:34:43.998Z,51.10
2019-03-11T01:36:48.885Z,51.00
2019-03-11T01:38:53.833Z,51.00
2019-03-11T01:40:58.633Z,51.00
2019-03-11T01:43:03.590Z,51.00
2019-03-11T01:45:10.442Z,51.00
2019-03-11T01:47:15.247Z,51.00
2019-03-11T01:49:19.979Z,50.90
2019-03-11T01:51:24.824Z,50.90
2019-03-11T01:53:29.565Z,50.90
2019-03-11T01:55:34.398Z,50.90
2019-03-11T01:57:39.134Z,50.90
2019-03-11T01:59:44.284Z,51.50
2019-03-11T02:01:49.165Z,50.90
2019-03-11T02:03:53.927Z,50.90
2019-03-11T02:05:58.716Z,50.90
2019-03-11T02:08:03.532Z,50.90
2019-03-11T02:10:09.928Z,50.90
2019-03-11T02:12:15.723Z,50.80
2019-03-11T02:14:20.607Z,51.50
2019-03-11T02:16:25.435Z,50.80
2019-03-11T02:18:30.302Z,50.80
2019-03-11T02:20:35.175Z,50.80
2019-03-11T02:22:40.096Z,50.80
2019-03-11T02:24:44.936Z,50.80
2019-03-11T02:26:49.784Z,50.70
2019-03-11T02:28:54.554Z,50.80
2019-03-11T02:30:59.410Z,50.70
2019-03-11T02:33:04.205Z,50.80
2019-03-11T02:35:09.058Z,50.70
2019-03-11T02:37:13.909Z,50.70
2019-03-11T02:39:18.839Z,50.70
2019-03-11T02:41:23.751Z,50.70
2019-03-11T02:43:28.679Z,50.60
2019-03-11T02:45:34.128Z,50.70
2019-03-11T02:47:39.543Z,50.60
2019-03-11T02:49:44.593Z,50.60
2019-03-11T02:51:49.461Z,50.60
2019-03-11T02:53:54.249Z,51.30
2019-03-11T02:55:59.022Z,50.50
2019-03-11T02:58:04.901Z,50.70
2019-03-11T03:00:14.070Z,50.60
2019-03-11T03:02:38.127Z,50.70
2019-03-11T03:04:47.721Z,50.70
2019-03-11T03:06:52.508Z,50.70
2019-03-11T03:08:57.355Z,50.60
2019-03-11T03:11:02.330Z,50.60
2019-03-11T03:13:07.087Z,50.70
2019-03-11T03:15:11.874Z,50.60
2019-03-11T03:17:17.942Z,50.60
2019-03-11T03:19:22.815Z,50.70
2019-03-11T03:21:27.560Z,50.60
2019-03-11T03:23:32.425Z,50.50
2019-03-11T03:25:37.223Z,50.50
2019-03-11T03:27:42.135Z,50.60
2019-03-11T03:29:46.879Z,50.50
2019-03-11T03:31:51.852Z,50.60
2019-03-11T03:33:56.921Z,50.50
2019-03-11T03:36:01.884Z,50.50
2019-03-11T03:38:06.874Z,50.40
2019-03-11T03:40:11.947Z,50.50
2019-03-11T03:42:16.936Z,50.50
2019-03-11T03:44:21.915Z,50.40
2019-03-11T03:46:26.854Z,50.50
2019-03-11T03:48:31.719Z,50.50
2019-03-11T03:50:38.295Z,50.50
2019-03-11T03:52:44.143Z,50.50
2019-03-11T03:54:48.908Z,50.40
2019-03-11T03:56:54.501Z,50.30
2019-03-11T03:59:00.397Z,50.30
2019-03-11T04:01:05.284Z,50.30
2019-03-11T04:03:10.049Z,50.30
2019-03-11T04:05:14.907Z,50.30
2019-03-11T04:07:19.681Z,50.30
2019-03-11T04:09:24.548Z,50.40
2019-03-11T04:11:29.395Z,50.30
2019-03-11T04:13:34.409Z,50.30
2019-03-11T04:15:39.207Z,50.20
2019-03-11T04:17:43.987Z,50.20
2019-03-11T04:19:48.759Z,50.20
2019-03-11T04:21:53.536Z,50.20
2019-03-11T04:23:58.426Z,50.20
2019-03-11T04:26:03.168Z,50.20
2019-03-11T04:28:07.924Z,50.20
2019-03-11T04:30:18.973Z,50.20
2019-03-11T04:32:23.883Z,50.20
2019-03-11T04:34:28.603Z,50.20
2019-03-11T04:36:33.310Z,50.20
2019-03-11T04:38:38.256Z,50.20
2019-03-11T04:40:43.063Z,50.10
2019-03-11T04:42:47.892Z,50.20
2019-03-11T04:44:52.633Z,50.10
2019-03-11T04:46:57.552Z,50.20
2019-03-11T04:49:02.244Z,50.20
2019-03-11T04:51:07.257Z,50.10
2019-03-11T04:53:12.231Z,50.10
2019-03-11T04:55:17.285Z,50.20
2019-03-11T04:57:23.562Z,50.00
2019-03-11T04:59:28.393Z,50.10
2019-03-11T05:01:34.121Z,50.00
2019-03-11T05:03:39.942Z,50.00
2019-03-11T05:05:44.783Z,50.00
2019-03-11T05:07:49.536Z,50.00
2019-03-11T05:09:54.537Z,50.00
2019-03-11T05:11:59.415Z,50.00
2019-03-11T05:14:04.215Z,50.00
2019-03-11T05:16:09.004Z,50.00
2019-03-11T05:18:13.779Z,50.00
2019-03-11T05:20:18.516Z,49.90
2019-03-11T05:22:23.297Z,50.00
2019-03-11T05:24:28.136Z,50.00
2019-03-11T05:26:32.975Z,50.00
2019-03-11T05:28:37.778Z,49.90
2019-03-11T05:30:42.797Z,50.00
2019-03-11T05:32:47.551Z,49.90
2019-03-11T05:34:52.235Z,49.90
2019-03-11T05:36:58.075Z,49.90
2019-03-11T05:39:03.649Z,49.80
2019-03-11T05:41:09.618Z,49.90
2019-03-11T05:43:14.396Z,49.90
2019-03-11T05:45:19.249Z,49.90
2019-03-11T05:47:24.060Z,49.90
2019-03-11T05:49:29.915Z,50.00
2019-03-11T05:51:34.696Z,49.90
2019-03-11T05:53:39.396Z,49.90
2019-03-11T05:55:44.386Z,50.00
2019-03-11T05:57:49.198Z,50.20
2019-03-11T05:59:55.125Z,50.30
2019-03-11T06:01:59.906Z,50.40
2019-03-11T06:04:04.925Z,50.40
2019-03-11T06:06:09.733Z,50.40
2019-03-11T06:08:20.474Z,50.40
2019-03-11T06:10:25.342Z,50.40
2019-03-11T06:12:30.137Z,50.30
2019-03-11T06:14:35.995Z,50.40
2019-03-11T06:16:40.866Z,50.20
2019-03-11T06:18:50.710Z,50.20
2019-03-11T06:21:16.939Z,50.20
2019-03-11T06:23:23.197Z,50.20
2019-03-11T06:25:28.116Z,50.20
2019-03-11T06:27:33.689Z,50.20
2019-03-11T06:29:38.490Z,50.20
2019-03-11T06:31:43.313Z,50.20
2019-03-11T06:33:48.069Z,50.30
2019-03-11T06:35:52.846Z,50.30
2019-03-11T06:37:57.620Z,50.30
2019-03-11T06:40:03.604Z,50.30
2019-03-11T06:42:08.471Z,50.20
2019-03-11T06:44:13.305Z,50.20
2019-03-11T06:46:18.208Z,50.10
2019-03-11T06:48:22.957Z,50.10
2019-03-11T06:50:28.932Z,50.10
2019-03-11T06:52:34.092Z,50.10
2019-03-11T06:54:39.377Z,50.10
2019-03-11T06:56:44.186Z,50.10
2019-03-11T06:58:49.114Z,50.00
2019-03-11T07:00:53.894Z,50.10
2019-03-11T07:02:58.777Z,50.10
2019-03-11T07:05:03.494Z,50.00
2019-03-11T07:07:08.316Z,50.00
2019-03-11T07:09:13.209Z,50.00
2019-03-11T07:11:17.981Z,50.00
2019-03-11T07:13:22.723Z,49.90
2019-03-11T07:15:28.425Z,49.90
2019-03-11T07:17:33.724Z,50.00
2019-03-11T07:19:38.724Z,49.90
2019-03-11T07:21:43.717Z,49.90
2019-03-11T07:23:48.477Z,50.00
2019-03-11T07:25:53.292Z,50.00
2019-03-11T07:27:58.349Z,50.10
2019-03-11T07:30:03.352Z,50.20
2019-03-11T07:32:08.166Z,50.20
2019-03-11T07:34:13.052Z,50.20
2019-03-11T07:36:17.897Z,50.20
2019-03-11T07:38:22.859Z,50.20
2019-03-11T07:40:30.037Z,50.30
2019-03-11T07:42:34.252Z,50.30
2019-03-11T07:44:39.057Z,50.40
2019-03-11T07:46:45.545Z,50.40
2019-03-11T07:48:50.777Z,50.40
2019-03-11T07:50:55.681Z,50.50
2019-03-11T07:53:00.579Z,50.50
2019-03-11T07:55:05.987Z,50.60
2019-03-11T07:57:11.327Z,50.60
2019-03-11T07:59:16.138Z,50.60
2019-03-11T08:01:21.072Z,50.70
2019-03-11T08:03:25.903Z,50.60
2019-03-11T08:05:30.655Z,50.70
2019-03-11T08:07:35.474Z,50.60
2019-03-11T08:09:40.312Z,50.70
2019-03-11T08:11:47.135Z,50.70
2019-03-11T08:13:52.540Z,51.30
2019-03-11T08:16:00.449Z,50.70
2019-03-11T08:18:05.634Z,50.70
2019-03-11T08:20:11.244Z,50.50
2019-03-11T08:22:16.189Z,50.50
2019-03-11T08:24:21.047Z,50.50
2019-03-11T08:26:25.879Z,50.60
2019-03-11T08:28:30.886Z,50.60
2019-03-11T08:30:35.711Z,50.50
2019-03-11T08:32:40.726Z,50.50
2019-03-11T08:34:45.477Z,50.30
2019-03-11T08:36:50.484Z,50.30
2019-03-11T08:38:56.441Z,50.20
2019-03-11T08:41:01.166Z,50.20
2019-03-11T08:43:06.216Z,50.10
2019-03-11T08:45:11.593Z,50.00
2019-03-11T08:47:16.566Z,50.00
2019-03-11T08:49:21.345Z,50.00
2019-03-11T08:51:26.436Z,50.00
2019-03-11T08:53:31.272Z,50.00
2019-03-11T08:55:36.168Z,50.10
2019-03-11T08:57:41.565Z,50.00
2019-03-11T08:59:46.537Z,49.90
2019-03-11T09:01:51.441Z,49.90
2019-03-11T09:03:56.416Z,49.90
2019-03-11T09:06:01.186Z,49.90
2019-03-11T09:08:06.004Z,49.80
2019-03-11T09:10:12.260Z,49.70
2019-03-11T09:12:17.141Z,49.70
2019-03-11T09:14:22.053Z,49.70
2019-03-11T09:16:27.332Z,49.50
2019-03-11T09:18:33.277Z,49.50
2019-03-11T09:20:38.126Z,49.50
2019-03-11T09:22:42.948Z,49.50
2019-03-11T09:24:47.950Z,49.50
2019-03-11T09:26:52.874Z,49.50
2019-03-11T09:28:57.840Z,49.40
2019-03-11T09:31:02.792Z,49.30
2019-03-11T09:33:08.662Z,49.30
2019-03-11T09:35:13.472Z,49.30
2019-03-11T09:37:18.319Z,49.30
2019-03-11T09:39:23.917Z,50.00
2019-03-11T09:41:28.641Z,50.90
2019-03-11T09:43:33.671Z,51.50
2019-03-11T09:45:38.600Z,51.30
2019-03-11T09:47:43.497Z,51.30
2019-03-11T09:49:49.682Z,51.60
2019-03-11T09:51:54.475Z,51.40
2019-03-11T09:53:59.530Z,51.20
2019-03-11T09:56:06.391Z,51.30
2019-03-11T09:58:11.692Z,51.10
2019-03-11T10:00:21.435Z,51.00
2019-03-11T10:02:26.399Z,51.10
2019-03-11T10:04:31.471Z,51.10
2019-03-11T10:06:36.337Z,51.20
2019-03-11T10:08:41.386Z,51.00
2019-03-11T10:10:46.840Z,51.00
2019-03-11T10:12:52.447Z,50.90
2019-03-11T10:14:57.820Z,50.80
2019-03-11T10:17:02.758Z,51.00
2019-03-11T10:19:07.564Z,50.90
2019-03-11T10:21:12.640Z,50.90
2019-03-11T10:23:17.321Z,50.80
2019-03-11T10:25:23.117Z,50.70
2019-03-11T10:27:29.115Z,50.70
2019-03-11T10:29:33.880Z,50.70
2019-03-11T10:31:38.720Z,50.70
2019-03-11T10:33:43.458Z,50.70
2019-03-11T10:35:48.332Z,51.30
2019-03-11T10:37:53.321Z,50.60
2019-03-11T10:39:58.341Z,50.70
2019-03-11T10:42:03.090Z,50.60
2019-03-11T10:44:07.932Z,50.50
2019-03-11T10:46:12.771Z,50.50
2019-03-11T10:48:17.693Z,50.40
2019-03-11T10:50:22.461Z,50.40
2019-03-11T10:52:27.888Z,50.40
2019-03-11T10:54:32.811Z,50.20
2019-03-11T10:56:37.840Z,50.20
2019-03-11T10:58:42.658Z,50.20
2019-03-11T11:00:48.726Z,50.10
2019-03-11T11:02:53.566Z,50.00
2019-03-11T11:04:58.448Z,50.10
2019-03-11T11:07:03.563Z,50.00
2019-03-11T11:09:08.814Z,49.90
2019-03-11T11:11:14.945Z,49.90
2019-03-11T11:13:19.802Z,49.80
2019-03-11T11:15:24.636Z,49.80
2019-03-11T11:17:29.573Z,49.70
2019-03-11T11:19:34.485Z,49.70
2019-03-11T11:21:39.379Z,49.50
2019-03-11T11:23:44.191Z,49.50
2019-03-11T11:25:48.884Z,49.50
2019-03-11T11:27:54.065Z,49.40
2019-03-11T11:29:58.932Z,49.30
2019-03-11T11:32:03.640Z,49.30
2019-03-11T11:34:08.584Z,49.20
2019-03-11T11:36:13.429Z,49.30
2019-03-11T11:38:19.660Z,49.20
2019-03-11T11:40:24.930Z,49.10
2019-03-11T11:42:29.720Z,49.10
2019-03-11T11:44:34.637Z,49.10
2019-03-11T11:46:39.511Z,49.10
2019-03-11T11:48:44.318Z,49.10
2019-03-11T11:50:49.265Z,49.10
2019-03-11T11:52:54.171Z,49.10
2019-03-11T11:54:59.313Z,49.10
2019-03-11T11:57:04.169Z,49.10
2019-03-11T11:59:09.053Z,49.00
2019-03-11T12:01:15.081Z,49.00
2019-03-11T12:03:20.135Z,48.90
2019-03-11T12:05:25.270Z,48.90
2019-03-11T12:07:30.217Z,48.90
2019-03-11T12:09:35.232Z,48.90
2019-03-11T12:11:40.268Z,48.80
2019-03-11T12:13:45.219Z,48.80
2019-03-11T12:15:50.045Z,48.90
2019-03-11T12:17:54.874Z,48.80
2019-03-11T12:19:59.784Z,48.80
2019-03-11T12:22:04.642Z,48.80
2019-03-11T12:24:09.502Z,48.90
2019-03-11T12:26:14.455Z,48.80
2019-03-11T12:28:19.247Z,48.70
2019-03-11T12:30:25.416Z,48.80
2019-03-11T12:32:30.252Z,48.80
2019-03-11T12:34:35.153Z,48.70
2019-03-11T12:36:39.957Z,48.70
2019-03-11T12:38:44.954Z,48.80
2019-03-11T12:40:49.885Z,48.70
2019-03-11T12:42:54.696Z,48.70
2019-03-11T12:44:59.548Z,48.70
2019-03-11T12:47:04.377Z,48.70
2019-03-11T12:49:09.163Z,49.30
2019-03-11T12:51:15.063Z,48.60
2019-03-11T12:53:19.916Z,48.50
2019-03-11T12:55:24.819Z,48.60
2019-03-11T12:57:29.754Z,48.50
2019-03-11T12:59:40.506Z,48.50
2019-03-11T13:01:41.245Z,48.50
2019-03-11T13:03:47.316Z,48.50
2019-03-11T13:05:52.164Z,48.30
2019-03-11T13:07:57.113Z,48.30
2019-03-11T13:10:02.168Z,48.30
2019-03-11T13:12:08.143Z,48.30
2019-03-11T13:14:13.023Z,48.20
2019-03-11T13:16:17.904Z,48.20
2019-03-11T13:18:33.931Z,48.20
2019-03-11T13:20:38.794Z,48.20
2019-03-11T13:22:43.779Z,48.10
2019-03-11T13:24:48.607Z,48.00
2019-03-11T13:26:53.506Z,47.90
2019-03-11T13:28:58.694Z,47.90
2019-03-11T13:31:03.566Z,47.80
2019-03-11T13:33:08.547Z,47.80
2019-03-11T13:35:13.498Z,47.80
2019-03-11T13:37:18.418Z,47.70
2019-03-11T13:39:23.273Z,47.80
2019-03-11T13:41:28.049Z,47.70
2019-03-11T13:43:33.264Z,47.60
2019-03-11T13:45:38.150Z,47.60
2019-03-11T13:47:43.163Z,47.60
2019-03-11T13:49:48.229Z,47.50
2019-03-11T13:51:53.195Z,47.40
2019-03-11T13:53:59.299Z,47.40
2019-03-11T13:56:04.092Z,47.50
2019-03-11T13:58:08.887Z,46.80
2019-03-11T14:00:14.021Z,47.40
2019-03-11T14:02:18.891Z,47.50
2019-03-11T14:04:24.031Z,47.40
2019-03-11T14:06:28.948Z,47.30
2019-03-11T14:08:33.819Z,47.30
2019-03-11T14:10:39.651Z,47.30
2019-03-11T14:12:44.493Z,47.30
2019-03-11T14:14:49.481Z,47.30
2019-03-11T14:16:54.561Z,47.30
2019-03-11T14:18:59.444Z,47.30
2019-03-11T14:21:04.292Z,47.30
2019-03-11T14:23:09.194Z,47.30
2019-03-11T14:25:14.189Z,47.40
2019-03-11T14:27:19.471Z,47.90
2019-03-11T14:29:24.356Z,47.30
2019-03-11T14:31:29.432Z,47.40
2019-03-11T14:33:34.351Z,47.40
2019-03-11T14:35:39.268Z,48.00
2019-03-11T14:37:44.228Z,47.40
2019-03-11T14:39:49.110Z,47.50
2019-03-11T14:41:53.921Z,47.50
2019-03-11T14:43:58.832Z,47.60
2019-03-11T14:46:03.741Z,47.60
2019-03-11T14:48:08.703Z,47.60
2019-03-11T14:50:13.645Z,47.60
2019-03-11T14:52:18.504Z,47.60
2019-03-11T14:54:23.469Z,47.60
2019-03-11T14:56:28.674Z,47.70
2019-03-11T14:58:33.590Z,47.70
2019-03-11T15:00:38.540Z,47.60
2019-03-11T15:02:43.497Z,47.60
2019-03-11T15:04:50.935Z,47.70
2019-03-11T15:06:55.588Z,47.70
2019-03-11T15:09:00.623Z,47.70
2019-03-11T15:11:05.838Z,47.70
2019-03-11T15:13:11.850Z,47.70
2019-03-11T15:15:17.508Z,47.80
2019-03-11T15:17:22.268Z,48.50
2019-03-11T15:19:27.202Z,47.70
2019-03-11T15:21:32.027Z,47.80
2019-03-11T15:23:36.908Z,47.80
2019-03-11T15:25:41.761Z,47.80
2019-03-11T15:27:46.982Z,47.80
2019-03-11T15:29:52.447Z,47.90
2019-03-11T15:31:57.745Z,47.90
2019-03-11T15:34:04.030Z,47.90
2019-03-11T15:36:08.867Z,48.00
2019-03-11T15:38:13.707Z,47.90
2019-03-11T15:40:18.530Z,48.00
2019-03-11T15:42:36.153Z,48.00
2019-03-11T15:44:43.290Z,48.00
2019-03-11T15:46:49.389Z,48.00
2019-03-11T15:48:59.037Z,48.00
2019-03-11T15:51:05.201Z,48.00
2019-03-11T15:53:10.032Z,48.00
2019-03-11T15:55:17.010Z,47.90
2019-03-11T15:57:21.912Z,48.00
2019-03-11T15:59:26.674Z,48.00
2019-03-11T16:01:31.580Z,48.00
2019-03-11T16:03:37.023Z,48.00
2019-03-11T16:05:43.408Z,48.00
2019-03-11T16:07:49.944Z,47.90
2019-03-11T16:09:57.352Z,48.00
2019-03-11T16:12:04.392Z,48.00
2019-03-11T16:14:10.224Z,48.00
2019-03-11T16:16:15.280Z,48.00
2019-03-11T16:18:20.518Z,48.00
2019-03-11T16:20:25.400Z,48.00
2019-03-11T16:22:30.373Z,48.10
2019-03-11T16:24:35.204Z,48.10
2019-03-11T16:26:40.214Z,48.10
2019-03-11T16:28:48.307Z,48.10
2019-03-11T16:30:53.429Z,48.00
2019-03-11T16:33:00.267Z,47.90
2019-03-11T16:35:05.530Z,47.90
2019-03-11T16:37:10.412Z,47.90
2019-03-11T16:39:15.630Z,48.10
2019-03-11T16:41:20.682Z,47.90
2019-03-11T16:43:25.581Z,47.80
2019-03-11T16:45:30.469Z,47.70
2019-03-11T16:47:35.361Z,47.60
2019-03-11T16:49:40.301Z,47.80
2019-03-11T16:51:45.080Z,47.50
2019-03-11T16:53:50.009Z,47.50
2019-03-11T16:55:55.591Z,47.60
2019-03-11T16:58:00.539Z,47.40
2019-03-11T17:00:07.077Z,47.40
2019-03-11T17:02:13.672Z,47.40
2019-03-11T17:04:18.637Z,47.40
2019-03-11T17:06:23.624Z,47.20
2019-03-11T17:08:28.548Z,47.20
2019-03-11T17:10:33.758Z,47.30
2019-03-11T17:12:39.231Z,47.10
2019-03-11T17:14:44.239Z,47.10
2019-03-11T17:16:50.844Z,47.10
2019-03-11T17:18:55.842Z,47.10
2019-03-11T17:21:00.848Z,47.10
2019-03-11T17:23:13.576Z,47.10
2019-03-11T17:25:24.871Z,47.10
2019-03-11T17:27:33.045Z,47.10
2019-03-11T17:29:47.530Z,47.00
2019-03-11T17:31:59.417Z,47.10
2019-03-11T17:34:15.628Z,47.10
2019-03-11T17:36:31.643Z,47.10
2019-03-11T17:38:48.142Z,47.00
2019-03-11T17:41:05.279Z,47.00
2019-03-11T17:43:22.652Z,47.00
2019-03-11T17:45:36.619Z,47.00
2019-03-11T17:47:45.531Z,46.90
2019-03-11T17:49:52.025Z,46.90
2019-03-11T17:51:57.786Z,46.90
2019-03-11T17:54:07.027Z,47.00
2019-03-11T17:56:17.530Z,47.00
2019-03-11T17:58:29.440Z,46.80
2019-03-11T18:00:54.645Z,46.90
2019-03-11T18:02:55.440Z,47.00
2019-03-11T18:05:08.888Z,46.90
2019-03-11T18:07:22.117Z,46.80
2019-03-11T18:09:32.764Z,46.80
2019-03-11T18:11:42.860Z,46.70
2019-03-11T18:14:01.303Z,46.90
2019-03-11T18:16:15.095Z,46.80
2019-03-11T18:27:41.296Z,47.00
2019-03-11T18:29:49.172Z,47.70
2019-03-11T18:44:01.865Z,47.20
2019-03-11T18:59:59.668Z,47.30
2019-03-11T19:10:34.501Z,47.80
2019-03-11T19:12:41.560Z,47.90
2019-03-11T19:14:48.426Z,47.90
2019-03-11T19:31:31.621Z,49.20
2019-03-11T19:39:26.875Z,51.50
2019-03-11T19:44:35.371Z,50.80
2019-03-11T19:49:43.997Z,50.80
2019-03-11T19:51:49.133Z,50.90
2019-03-11T20:02:11.257Z,51.00
2019-03-11T20:07:04.563Z,51.00
2019-03-11T20:09:14.479Z,51.00
2019-03-11T20:14:22.192Z,51.00
2019-03-11T20:22:16.295Z,51.00
2019-03-11T20:30:18.156Z,50.90
2019-03-11T20:35:25.779Z,50.80
2019-03-11T20:43:20.723Z,50.80
2019-03-11T20:48:30.697Z,50.70
2019-03-11T20:53:35.369Z,50.80
2019-03-11T20:59:30.565Z,50.70
2019-03-11T21:04:34.310Z,50.70
2019-03-11T21:11:54.958Z,50.70
2019-03-11T21:17:02.617Z,50.60
2019-03-11T21:22:48.098Z,50.60
2019-03-11T21:27:54.875Z,50.50
2019-03-11T21:33:02.266Z,50.60
2019-03-11T21:46:31.157Z,51.10
2019-03-11T21:52:25.036Z,50.50
2019-03-11T21:57:36.785Z,50.40
2019-03-11T21:59:41.740Z,50.40
2019-03-11T22:01:47.716Z,50.40
2019-03-11T22:03:52.479Z,50.50
2019-03-11T22:05:57.327Z,50.40
2019-03-11T22:08:02.125Z,50.40
2019-03-11T22:10:07.438Z,50.40
2019-03-11T22:12:13.322Z,50.40
2019-03-11T22:14:18.085Z,50.50
2019-03-11T22:16:22.873Z,50.50
2019-03-11T22:18:27.751Z,50.50
2019-03-11T22:20:32.639Z,50.60
2019-03-11T22:22:41.504Z,50.60
2019-03-11T22:24:46.381Z,50.70
2019-03-11T22:26:51.233Z,50.50
2019-03-11T22:28:56.097Z,50.60
2019-03-11T22:31:04.185Z,50.60
2019-03-11T22:33:09.095Z,50.70
2019-03-11T22:35:14.089Z,50.70
2019-03-11T22:37:54.024Z,50.50
2019-03-11T22:39:59.106Z,50.60
2019-03-11T22:42:05.860Z,50.60
2019-03-11T22:44:14.787Z,50.60
2019-03-11T22:46:20.177Z,50.50
2019-03-11T22:48:25.364Z,50.60
2019-03-11T22:50:30.536Z,50.50
2019-03-11T22:52:35.543Z,50.50
2019-03-11T22:54:40.777Z,50.60
2019-03-11T22:56:48.393Z,50.50
2019-03-11T22:58:55.659Z,50.50
2019-03-11T23:01:05.262Z,50.50
2019-03-11T23:03:29.690Z,50.50
2019-03-11T23:05:36.784Z,50.40
2019-03-11T23:07:41.797Z,50.50
2019-03-11T23:09:55.857Z,50.40
2019-03-11T23:12:01.588Z,50.40
2019-03-11T23:14:43.904Z,50.50
2019-03-11T23:16:49.301Z,50.40
2019-03-11T23:18:54.443Z,50.40
2019-03-11T23:21:02.019Z,50.50
2019-03-11T23:23:08.490Z,50.40
2019-03-11T23:25:36.462Z,50.40
2019-03-11T23:27:42.897Z,50.40
2019-03-11T23:29:47.685Z,50.40
2019-03-11T23:31:52.403Z,50.40
2019-03-11T23:33:57.286Z,50.40
2019-03-11T23:36:02.377Z,50.40
2019-03-11T23:38:07.139Z,50.40
2019-03-11T23:40:12.426Z,50.40
2019-03-11T23:42:17.201Z,50.40
2019-03-11T23:44:21.988Z,50.40
2019-03-11T23:46:26.881Z,50.40
2019-03-11T23:48:31.601Z,50.40
2019-03-11T23:50:37.024Z,50.40
2019-03-11T23:52:41.899Z,50.40
2019-03-11T23:54:46.695Z,50.30
2019-03-11T23:56:51.552Z,50.40
2019-03-11T23:58:56.395Z,50.30
